Time;durP1;ratioP1;P1;durP2;ratioP2;P2;SDS_P1;SDS_P2;PMS_P1;PMS_P2;Temp;Humidity;BMP_temperature;BMP_pressure;BME280_temperature;BME280_humidity;BME280_pressure;Samples;Min_cycle;Max_cycle;Signal;HPM_P1;HPM_P2
2022/06/03 00:01:29;;;;;;;;;;;;;;;-144.12;100.00;72078.50;5023875;28;20530;-68
2022/06/03 00:03:54;;;;;;;;;;;;;;;-144.12;100.00;72078.50;5048039;28;19912;-68
2022/06/03 00:06:29;;;;;;;;;;;;;;;-144.12;100.00;72078.50;5043195;28;19912;-68
2022/06/03 00:09:01;;;;;;;;;;;;;;;-144.12;100.00;72078.50;5041541;28;19917;-68
2022/06/03 00:11:35;;;;;;;;;;;;;;;-144.12;100.00;72078.50;5045220;28;20031;-68
2022/06/03 00:14:13;;;;;;;;;;;;;;;-144.12;100.00;72078.50;5037112;28;19974;-68
2022/06/03 00:16:50;;;;;;;;;;;;;;;-144.12;100.00;72078.50;5040463;28;19923;-68
2022/06/03 00:19:35;;;;;;;;;;;;;;;-144.12;100.00;72078.50;5042098;28;19952;-69
2022/06/03 00:22:09;;;;;;;;;;;;;;;-144.12;100.00;72078.50;5040915;28;19920;-69
2022/06/03 00:24:37;;;;;;;;;;;;;;;-144.12;100.00;72078.50;5033566;28;19920;-68
2022/06/03 00:27:06;;;;;;;;;;;;;;;-144.12;100.00;72078.50;5042536;28;20005;-68
2022/06/03 00:29:47;;;;;;;;;;;;;;;-144.12;100.00;72078.50;5037632;28;19913;-68
2022/06/03 00:32:22;;;;;;;;;;;;;;;-144.12;100.00;72078.50;5034585;28;20003;-68
2022/06/03 00:34:59;;;;;;;;;;;;;;;-144.12;100.00;72078.50;5043645;28;20385;-68
2022/06/03 00:37:40;;;;;;;;;;;;;;;-144.12;100.00;72078.50;5041605;28;20305;-69
2022/06/03 00:40:12;;;;;;;;;;;;;;;-144.12;100.00;72078.50;5035805;28;19948;-68
2022/06/03 00:42:56;;;;;;;;;;;;;;;-144.12;100.00;72078.50;5035517;28;19966;-68
2022/06/03 00:45:33;;;;;;;;;;;;;;;-144.12;100.00;72078.50;5032044;28;20034;-68
2022/06/03 00:48:11;;;;;;;;;;;;;;;-144.12;100.00;72078.50;5039848;28;19959;-69
2022/06/03 00:50:42;;;;;;;;;;;;;;;-144.12;100.00;72078.50;5016675;28;19979;-69
2022/06/03 00:53:08;;;;;;;;;;;;;;;-144.12;100.00;72078.50;5035573;28;20419;-69
2022/06/03 00:55:46;;;;;;;;;;;;;;;-144.12;100.00;72078.50;5020706;28;19959;-68
2022/06/03 00:58:32;;;;;;;;;;;;;;;-144.12;100.00;72078.50;5045063;28;19917;-68
2022/06/03 01:01:03;;;;;;;;;;;;;;;-144.12;100.00;72078.50;5002820;28;19913;-68
2022/06/03 01:03:34;;;;;;;;;;;;;;;-144.12;100.00;72078.50;5027436;28;19916;-68
2022/06/03 01:06:18;;;;;;;;;;;;;;;-144.12;100.00;72078.50;5027980;28;19913;-68
2022/06/03 01:09:06;;;;;;;;;;;;;;;-144.12;100.00;72078.50;5035808;28;19920;-68
2022/06/03 01:11:41;;;;;;;;;;;;;;;-144.12;100.00;72078.50;5021795;28;19913;-69
2022/06/03 01:14:16;;;;;;;;;;;;;;;-144.12;100.00;72078.50;5038643;28;19917;-69
2022/06/03 01:16:56;;;;;;;;;;;;;;;-144.12;100.00;72078.50;5032772;28;20401;-68
2022/06/03 01:19:40;;;;;;;;;;;;;;;-144.12;100.00;72078.50;5036499;28;19923;-69
2022/06/03 01:22:24;;;;;;;;;;;;;;;-144.12;100.00;72078.50;5029100;28;20306;-69
2022/06/03 01:25:10;;;;;;;;;;;;;;;-144.12;100.00;72078.50;5038213;28;19912;-69
2022/06/03 01:27:54;;;;;;;;;;;;;;;-144.12;100.00;72078.50;5034836;28;20151;-69
2022/06/03 01:30:38;;;;;;;;;;;;;;;-144.12;100.00;72078.50;5035208;28;19966;-68
2022/06/03 01:33:19;;;;;;;;;;;;;;;-144.12;100.00;72078.50;5033188;28;19920;-68
2022/06/03 01:35:59;;;;;;;;;;;;;;;-144.12;100.00;72078.50;5032290;28;19913;-68
2022/06/03 01:38:34;;;;;;;;;;;;;;;-144.12;100.00;72078.50;5031964;28;19917;-68
2022/06/03 01:41:11;;;;;;;;;;;;;;;-144.12;100.00;72078.50;5034984;28;20412;-69
2022/06/03 01:43:48;;;;;;;;;;;;;;;-144.12;100.00;72078.50;5022840;28;19913;-70
2022/06/03 01:46:32;;;;;;;;;;;;;;;-144.12;100.00;72078.50;5039679;28;20078;-68
2022/06/03 01:48:58;;;;;;;;;;;;;;;-144.12;100.00;72078.50;5023872;28;20008;-70
2022/06/03 01:51:42;;;;;;;;;;;;;;;-144.12;100.00;72078.50;5012781;28;19952;-70
2022/06/03 01:54:07;;;;;;;;;;;;;;;-144.12;100.00;72078.50;5050078;28;19919;-68
2022/06/03 01:56:42;;;;;;;;;;;;;;;-144.12;100.00;72078.50;5040448;28;19913;-69
2022/06/03 01:59:26;;;;;;;;;;;;;;;-144.12;100.00;72078.50;5036176;28;19928;-70
2022/06/03 02:01:52;;;;;;;;;;;;;;;-144.12;100.00;72078.50;5042472;28;20452;-69
2022/06/03 02:04:20;;;;;;;;;;;;;;;-144.12;100.00;72078.50;5044592;28;20384;-68
2022/06/03 02:07:01;;;;;;;;;;;;;;;-144.12;100.00;72078.50;5050486;28;19972;-69
2022/06/03 02:09:29;;;;;;;;;;;;;;;-144.12;100.00;72078.50;5047525;28;19920;-71
2022/06/03 02:12:01;;;;;;;;;;;;;;;-144.12;100.00;72078.50;5045882;28;19913;-71
2022/06/03 02:14:45;;;;;;;;;;;;;;;-144.12;100.00;72078.50;5035555;28;19970;-70
2022/06/03 02:17:10;;;;;;;;;;;;;;;-144.12;100.00;72078.50;5031265;28;20016;-70
2022/06/03 02:19:35;;;;;;;;;;;;;;;-144.12;100.00;72078.50;5029580;28;20419;-69
2022/06/03 02:22:04;;;;;;;;;;;;;;;-144.12;100.00;72078.50;5033302;28;19920;-69
2022/06/03 02:24:41;;;;;;;;;;;;;;;-144.12;100.00;72078.50;5042462;28;19920;-70
2022/06/03 02:27:22;;;;;;;;;;;;;;;-144.12;100.00;72078.50;5046832;28;20309;-69
2022/06/03 02:32:49;;;;;;;;;;;;;;;-144.12;100.00;72078.50;5038681;28;19959;-68
2022/06/03 02:35:14;;;;;;;;;;;;;;;-144.12;100.00;72078.50;5042273;28;19912;-70
2022/06/03 02:37:58;;;;;;;;;;;;;;;-144.12;100.00;72078.50;5042893;28;20038;-70
2022/06/03 02:40:26;;;;;;;;;;;;;;;-144.12;100.00;72078.50;5021822;28;20011;-69
2022/06/03 02:43:04;;;;;;;;;;;;;;;-144.12;100.00;72078.50;5041911;28;19916;-70
2022/06/03 02:45:48;;;;;;;;;;;;;;;-144.12;100.00;72078.50;5041896;28;19913;-70
2022/06/03 02:48:26;;;;;;;;;;;;;;;-144.12;100.00;72078.50;5044863;28;19924;-69
2022/06/03 02:50:52;;;;;;;;;;;;;;;-144.12;100.00;72078.50;5037539;28;20365;-70
2022/06/03 02:53:35;;;;;;;;;;;;;;;-144.12;100.00;72078.50;5050450;28;19917;-70
2022/06/03 02:56:03;;;;;;;;;;;;;;;-144.12;100.00;72078.50;5040900;28;20007;-69
2022/06/03 02:58:41;;;;;;;;;;;;;;;-144.12;100.00;72078.50;5043090;28;19921;-71
2022/06/03 03:01:10;;;;;;;;;;;;;;;-144.12;100.00;72078.50;5044887;28;19913;-70
2022/06/03 03:03:58;;;;;;;;;;;;;;;-144.12;100.00;72078.50;5037333;28;19920;-71
2022/06/03 03:06:37;;;;;;;;;;;;;;;-144.12;100.00;72078.50;5008831;28;20016;-69
2022/06/03 03:09:02;;;;;;;;;;;;;;;-144.12;100.00;72078.50;5046552;28;19913;-69
2022/06/03 03:11:29;;;;;;;;;;;;;;;-144.12;100.00;72078.50;5053962;28;19928;-69
2022/06/03 03:13:54;;;;;;;;;;;;;;;-144.12;100.00;72078.50;5033062;28;19913;-68
2022/06/03 03:16:30;;;;;;;;;;;;;;;-144.12;100.00;72078.50;5036937;28;19924;-70
2022/06/03 03:18:58;;;;;;;;;;;;;;;-144.12;100.00;72078.50;5039727;28;19920;-70
2022/06/03 03:21:26;;;;;;;;;;;;;;;-144.12;100.00;72078.50;5046544;28;20412;-70
2022/06/03 03:23:52;;;;;;;;;;;;;;;-144.12;100.00;72078.50;5041454;28;19916;-70
2022/06/03 03:26:30;;;;;;;;;;;;;;;-144.12;100.00;72078.50;5026092;28;19920;-70
2022/06/03 03:29:01;;;;;;;;;;;;;;;-144.12;100.00;72078.50;5037490;28;19913;-69
2022/06/03 03:31:26;;;;;;;;;;;;;;;-144.12;100.00;72078.50;5026338;28;19932;-69
2022/06/03 03:34:12;;;;;;;;;;;;;;;-144.12;100.00;72078.50;5036949;28;19936;-70
2022/06/03 03:36:56;;;;;;;;;;;;;;;-144.12;100.00;72078.50;5004685;23;19956;-71
2022/06/03 03:39:34;;;;;;;;;;;;;;;-144.12;100.00;72078.50;5010462;28;19917;-71
2022/06/03 03:42:05;;;;;;;;;;;;;;;-144.12;100.00;72078.50;5008014;28;19913;-72
2022/06/03 03:44:42;;;;;;;;;;;;;;;-144.12;100.00;72078.50;5009230;28;19920;-73
2022/06/03 03:47:21;;;;;;;;;;;;;;;-144.12;100.00;72078.50;5009381;28;20119;-72
2022/06/03 03:49:46;;;;;;;;;;;;;;;-144.12;100.00;72078.50;4993989;28;19913;-72
2022/06/03 03:52:41;;;;;;;;;;;;;;;-144.12;100.00;72078.50;5011993;28;19917;-72
2022/06/03 03:55:18;;;;;;;;;;;;;;;-144.12;100.00;72078.50;4947182;28;20514;-72
2022/06/03 03:57:46;;;;;;;;;;;;;;;-144.12;100.00;72078.50;5008061;28;20523;-72
2022/06/03 04:00:32;;;;;;;;;;;;;;;-144.12;100.00;72078.50;4993332;28;19956;-72
2022/06/03 04:03:16;;;;;;;;;;;;;;;-144.12;100.00;72078.50;5008772;28;19919;-72
2022/06/03 04:06:07;;;;;;;;;;;;;;;-144.12;100.00;72078.50;5007705;28;19951;-72
2022/06/03 04:08:52;;;;;;;;;;;;;;;-144.12;100.00;72078.50;4991829;28;20408;-75
2022/06/03 04:11:17;;;;;;;;;;;;;;;-144.12;100.00;72078.50;5005772;28;19913;-75
2022/06/03 04:14:02;;;;;;;;;;;;;;;-144.12;100.00;72078.50;4993437;28;19944;-75
2022/06/03 04:16:27;;;;;;;;;;;;;;;-144.12;100.00;72078.50;5010095;28;19920;-72
2022/06/03 04:19:10;;;;;;;;;;;;;;;-144.12;100.00;72078.50;5011445;28;19944;-73
2022/06/03 04:21:42;;;;;;;;;;;;;;;-144.12;100.00;72078.50;5001701;28;19917;-73
2022/06/03 04:24:26;;;;;;;;;;;;;;;-144.12;100.00;72078.50;5011216;28;20006;-72
2022/06/03 04:27:04;;;;;;;;;;;;;;;-144.12;100.00;72078.50;4990256;28;20377;-73
2022/06/03 04:29:35;;;;;;;;;;;;;;;-144.12;100.00;72078.50;5009966;28;19917;-72
2022/06/03 04:32:03;;;;;;;;;;;;;;;-144.12;100.00;72078.50;4992705;28;19913;-74
2022/06/03 04:34:47;;;;;;;;;;;;;;;-144.12;100.00;72078.50;5010809;28;19991;-73
2022/06/03 04:37:15;;;;;;;;;;;;;;;-144.12;100.00;72078.50;5010891;28;19982;-72
2022/06/03 04:40:00;;;;;;;;;;;;;;;-144.12;100.00;72078.50;5008403;28;19956;-74
2022/06/03 04:42:44;;;;;;;;;;;;;;;-144.12;100.00;72078.50;5008886;28;19928;-74
2022/06/03 04:45:15;;;;;;;;;;;;;;;-144.12;100.00;72078.50;4991715;28;19935;-73
2022/06/03 04:47:50;;;;;;;;;;;;;;;-144.12;100.00;72078.50;5004328;28;19924;-72
2022/06/03 04:50:27;;;;;;;;;;;;;;;-144.12;100.00;72078.50;5005628;28;20341;-75
2022/06/03 04:52:56;;;;;;;;;;;;;;;-144.12;100.00;72078.50;5004701;28;19920;-73
2022/06/03 04:55:43;;;;;;;;;;;;;;;-144.12;100.00;72078.50;5008974;28;20304;-73
2022/06/03 04:58:27;;;;;;;;;;;;;;;-144.12;100.00;72078.50;4993223;28;19927;-72
2022/06/03 05:01:02;;;;;;;;;;;;;;;-144.12;100.00;72078.50;5006359;28;19952;-72
2022/06/03 05:03:46;;;;;;;;;;;;;;;-144.12;100.00;72078.50;5010741;28;19968;-72
2022/06/03 05:06:31;;;;;;;;;;;;;;;-144.12;100.00;72078.50;5003706;28;19928;-72
2022/06/03 05:09:09;;;;;;;;;;;;;;;-144.12;100.00;72078.50;5008334;28;19920;-72
2022/06/03 05:11:41;;;;;;;;;;;;;;;-144.12;100.00;72078.50;5007233;28;19913;-73
2022/06/03 05:14:12;;;;;;;;;;;;;;;-144.12;100.00;72078.50;4994736;28;20055;-73
2022/06/03 05:16:44;;;;;;;;;;;;;;;-144.12;100.00;72078.50;5007168;28;19913;-73
2022/06/03 05:19:17;;;;;;;;;;;;;;;-144.12;100.00;72078.50;5001514;28;19975;-73
2022/06/03 05:22:01;;;;;;;;;;;;;;;-144.12;100.00;72078.50;5006251;28;19928;-72
2022/06/03 05:24:38;;;;;;;;;;;;;;;-144.12;100.00;72078.50;5006505;28;19913;-73
2022/06/03 05:27:19;;;;;;;;;;;;;;;-144.12;100.00;72078.50;5004162;28;20011;-73
2022/06/03 05:29:57;;;;;;;;;;;;;;;-144.12;100.00;72078.50;5009110;28;19967;-73
2022/06/03 05:32:40;;;;;;;;;;;;;;;-144.12;100.00;72078.50;5006000;28;20297;-73
2022/06/03 05:35:25;;;;;;;;;;;;;;;-144.12;100.00;72078.50;5005814;28;19945;-73
2022/06/03 05:37:59;;;;;;;;;;;;;;;-144.12;100.00;72078.50;4989907;28;19913;-74
2022/06/03 05:40:48;;;;;;;;;;;;;;;-144.12;100.00;72078.50;5004761;28;19914;-73
2022/06/03 05:43:33;;;;;;;;;;;;;;;-144.12;100.00;72078.50;5005630;28;19917;-73
2022/06/03 05:46:02;;;;;;;;;;;;;;;-144.12;100.00;72078.50;5001777;28;19968;-74
2022/06/03 05:48:27;;;;;;;;;;;;;;;-144.12;100.00;72078.50;4998342;28;20301;-73
2022/06/03 05:50:56;;;;;;;;;;;;;;;-144.12;100.00;72078.50;5007956;28;19924;-73
2022/06/03 05:53:30;;;;;;;;;;;;;;;-144.12;100.00;72078.50;5007395;28;19969;-73
2022/06/03 05:55:55;;;;;;;;;;;;;;;-144.12;100.00;72078.50;5003479;28;20021;-75
2022/06/03 05:58:27;;;;;;;;;;;;;;;-144.12;100.00;72078.50;4998820;28;19918;-72
2022/06/03 06:01:15;;;;;;;;;;;;;;;-144.12;100.00;72078.50;4994522;28;19971;-72
2022/06/03 06:04:03;;;;;;;;;;;;;;;-144.12;100.00;72078.50;5005868;28;19917;-72
2022/06/03 06:06:31;;;;;;;;;;;;;;;-144.12;100.00;72078.50;5010244;28;20024;-72
2022/06/03 06:09:02;;;;;;;;;;;;;;;-144.12;100.00;72078.50;5007146;28;20309;-73
2022/06/03 06:11:35;;;;;;;;;;;;;;;-144.12;100.00;72078.50;4988964;28;20007;-72
2022/06/03 06:14:03;;;;;;;;;;;;;;;-144.12;100.00;72078.50;5018033;28;19966;-72
2022/06/03 06:16:37;;;;;;;;;;;;;;;-144.12;100.00;72078.50;5013336;28;19929;-73
2022/06/03 06:19:03;;;;;;;;;;;;;;;-144.12;100.00;72078.50;5007169;28;19955;-72
2022/06/03 06:21:40;;;;;;;;;;;;;;;-144.12;100.00;72078.50;5013257;28;19952;-72
2022/06/03 06:24:08;;;;;;;;;;;;;;;-144.12;100.00;72078.50;5018774;28;19913;-73
2022/06/03 06:27:06;;;;;;;;;;;;;;;-144.12;100.00;72078.50;5012221;28;19928;-73
2022/06/03 06:29:49;;;;;;;;;;;;;;;-144.12;100.00;72078.50;4968785;28;19918;-72
2022/06/03 06:32:18;;;;;;;;;;;;;;;-144.12;100.00;72078.50;5006961;28;19982;-72
2022/06/03 06:34:56;;;;;;;;;;;;;;;-144.12;100.00;72078.50;5009919;28;19932;-73
2022/06/03 06:37:31;;;;;;;;;;;;;;;-144.12;100.00;72078.50;5013620;28;20003;-73
2022/06/03 06:40:09;;;;;;;;;;;;;;;-144.12;100.00;72078.50;5018217;28;19926;-72
2022/06/03 06:42:53;;;;;;;;;;;;;;;-144.12;100.00;72078.50;5008464;28;20007;-71
2022/06/03 06:45:29;;;;;;;;;;;;;;;-144.12;100.00;72078.50;5005398;28;20437;-72
2022/06/03 06:48:10;;;;;;;;;;;;;;;-144.12;100.00;72078.50;5003790;28;19914;-72
2022/06/03 06:50:35;;;;;;;;;;;;;;;-144.12;100.00;72078.50;5008979;28;20488;-71
2022/06/03 06:53:10;;;;;;;;;;;;;;;-144.12;100.00;72078.50;5019341;28;19920;-71
2022/06/03 06:55:51;;;;;;;;;;;;;;;-144.12;100.00;72078.50;5007681;28;19972;-72
2022/06/03 06:58:43;;;;;;;;;;;;;;;-144.12;100.00;72078.50;5007271;28;19975;-71
2022/06/03 07:01:09;;;;;;;;;;;;;;;-144.12;100.00;72078.50;5002327;28;19917;-73
2022/06/03 07:03:38;;;;;;;;;;;;;;;-144.12;100.00;72078.50;5014409;28;19913;-72
2022/06/03 07:06:12;;;;;;;;;;;;;;;-144.12;100.00;72078.50;4995959;28;19971;-72
2022/06/03 07:08:45;;;;;;;;;;;;;;;-144.12;100.00;72078.50;5009772;28;19940;-71
2022/06/03 07:11:10;;;;;;;;;;;;;;;-144.12;100.00;72078.50;5012872;28;19925;-72
2022/06/03 07:13:42;;;;;;;;;;;;;;;-144.12;100.00;72078.50;5003693;28;19984;-73
2022/06/03 07:16:18;;;;;;;;;;;;;;;-144.12;100.00;72078.50;5005870;28;19920;-72
2022/06/03 07:21:55;;;;;;;;;;;;;;;-144.12;100.00;72078.50;5014348;28;19920;-72
2022/06/03 07:24:40;;;;;;;;;;;;;;;-144.12;100.00;72078.50;5009391;28;19948;-72
2022/06/03 07:27:12;;;;;;;;;;;;;;;-144.12;100.00;72078.50;5008068;28;19917;-74
2022/06/03 07:29:50;;;;;;;;;;;;;;;-144.12;100.00;72078.50;5001950;28;19913;-72
2022/06/03 07:32:19;;;;;;;;;;;;;;;-144.12;100.00;72078.50;5012014;28;19921;-72
2022/06/03 07:34:54;;;;;;;;;;;;;;;-144.12;100.00;72078.50;5011885;28;19917;-72
2022/06/03 07:37:19;;;;;;;;;;;;;;;-144.12;100.00;72078.50;5010346;28;19998;-72
2022/06/03 07:39:45;;;;;;;;;;;;;;;-144.12;100.00;72078.50;5012895;28;20016;-71
2022/06/03 07:42:19;;;;;;;;;;;;;;;-144.12;100.00;72078.50;4988871;28;19913;-72
2022/06/03 07:44:44;;;;;;;;;;;;;;;-144.12;100.00;72078.50;5010156;28;19959;-72
2022/06/03 07:47:11;;;;;;;;;;;;;;;-144.12;100.00;72078.50;5007002;28;19914;-72
2022/06/03 07:49:38;;;;;;;;;;;;;;;-144.12;100.00;72078.50;5007981;28;19924;-72
2022/06/03 07:52:05;;;;;;;;;;;;;;;-144.12;100.00;72078.50;5010293;28;19987;-72
2022/06/03 07:54:35;;;;;;;;;;;;;;;-144.12;100.00;72078.50;4985036;28;19913;-73
2022/06/03 07:57:00;;;;;;;;;;;;;;;-144.12;100.00;72078.50;5006860;28;20439;-72
2022/06/03 07:59:29;;;;;;;;;;;;;;;-144.12;100.00;72078.50;4994103;28;19929;-72
2022/06/03 08:02:13;;;;;;;;;;;;;;;-144.12;100.00;72078.50;5007909;28;19917;-73
2022/06/03 08:04:39;;;;;;;;;;;;;;;-144.12;100.00;72078.50;5008494;28;20305;-73
2022/06/03 08:12:55;;;;;;;;;;;;;;;-144.12;100.00;72078.50;5009116;28;19924;-72
2022/06/03 08:15:23;;;;;;;;;;;;;;;-144.12;100.00;72078.50;5009316;28;19940;-73
2022/06/03 08:17:49;;;;;;;;;;;;;;;-144.12;100.00;72078.50;4987557;28;19921;-72
2022/06/03 08:20:17;;;;;;;;;;;;;;;-144.12;100.00;72078.50;4990251;28;19913;-73
2022/06/03 08:22:45;;;;;;;;;;;;;;;-144.12;100.00;72078.50;5005574;28;19922;-73
2022/06/03 08:25:13;;;;;;;;;;;;;;;-144.12;100.00;72078.50;5008730;28;20003;-73
2022/06/03 08:27:39;;;;;;;;;;;;;;;-144.12;100.00;72078.50;5009356;28;19913;-73
2022/06/03 08:30:04;;;;;;;;;;;;;;;-144.12;100.00;72078.50;4975742;28;19920;-73
2022/06/03 08:32:33;;;;;;;;;;;;;;;-144.12;100.00;72078.50;5003604;28;19936;-73
2022/06/03 08:35:00;;;;;;;;;;;;;;;-144.12;100.00;72078.50;5009044;28;19927;-73
2022/06/03 08:37:39;;;;;;;;;;;;;;;-144.12;100.00;72078.50;5010267;28;19913;-73
2022/06/03 08:40:25;;;;;;;;;;;;;;;-144.12;100.00;72078.50;5005193;28;19917;-73
2022/06/03 08:42:59;;;;;;;;;;;;;;;-144.12;100.00;72078.50;4974951;28;19913;-73
2022/06/03 08:45:34;;;;;;;;;;;;;;;-144.12;100.00;72078.50;5013034;28;20012;-73
2022/06/03 08:48:03;;;;;;;;;;;;;;;-144.12;100.00;72078.50;4993393;28;20305;-73
2022/06/03 08:50:29;;;;;;;;;;;;;;;-144.12;100.00;72078.50;5006860;28;19968;-73
2022/06/03 08:53:20;;;;;;;;;;;;;;;-144.12;100.00;72078.50;5009932;28;19917;-72
2022/06/03 08:55:49;;;;;;;;;;;;;;;26.40;42.25;100079.50;4986659;28;19921;-72
2022/06/03 08:58:29;;;;;;;;;;;;;;;24.27;48.26;101518.72;5008508;28;19940;-73
2022/06/03 09:01:06;;;;;;;;;;;;;;;24.34;48.20;101516.59;5010499;28;19913;-72
2022/06/03 09:03:38;;;;;;;;;;;;;;;24.44;46.94;101510.06;5004277;28;19919;-73
2022/06/03 09:06:11;;;;;;;;;;;;;;;24.60;47.08;101514.81;5005636;28;21286;-73
2022/06/03 09:08:44;;;;;;;;;;;;;;;24.68;45.57;101514.19;5007811;28;20557;-73
2022/06/03 09:11:14;;;;;;;;;;;;;;;24.48;46.43;101510.75;5011059;28;19932;-72
2022/06/03 09:13:55;;;;;;;;;;;;;;;24.75;46.51;101514.09;5012876;28;19917;-72
2022/06/03 09:16:24;;;;;;;;;;;;;;;24.87;45.28;101516.13;5007028;28;19914;-72
2022/06/03 09:18:55;;;;;;;;;;;;;;;24.95;45.62;101514.75;5008119;28;19971;-73
2022/06/03 09:21:26;;;;;;;;;;;;;;;25.27;45.28;101527.72;4993806;28;19921;-72
2022/06/03 09:24:14;;;;;;;;;;;;;;;25.36;44.88;101518.84;5006605;28;19917;-72
2022/06/03 09:26:42;;;;;;;;;;;;;;;25.31;44.27;101508.31;4992545;28;20008;-71
2022/06/03 09:29:11;;;;;;;;;;;;;;;25.38;44.12;101508.13;4994610;28;20358;-72
2022/06/03 09:31:38;;;;;;;;;;;;;;;25.43;43.43;101510.41;5009822;28;20023;-72
2022/06/03 09:34:06;;;;;;;;;;;;;;;25.42;43.65;101511.59;5005047;28;19920;-72
2022/06/03 09:36:32;;;;;;;;;;;;;;;25.45;42.26;101517.03;5005482;28;19920;-70
2022/06/03 09:39:00;;;;;;;;;;;;;;;25.73;42.68;101520.97;4983057;28;20516;-71
2022/06/03 09:41:28;;;;;;;;;;;;;;;25.83;41.84;101511.63;5001536;28;20024;-71
2022/06/03 09:43:54;;;;;;;;;;;;;;;25.56;42.18;101512.00;4998991;28;20347;-72
2022/06/03 09:46:21;;;;;;;;;;;;;;;25.74;43.78;101505.97;5004136;28;19921;-71
2022/06/03 09:48:48;;;;;;;;;;;;;;;25.98;43.90;101506.47;5004784;28;19922;-71
2022/06/03 09:54:12;;;;;;;;;;;;;;;26.18;42.03;101496.81;5008825;28;20309;-71
2022/06/03 09:56:38;;;;;;;;;;;;;;;26.32;40.70;101498.34;5005889;28;20424;-71
2022/06/03 09:59:04;;;;;;;;;;;;;;;26.09;40.23;101493.16;5007834;28;19921;-71
2022/06/03 10:01:30;;;;;;;;;;;;;;;26.19;42.02;101492.81;5007252;28;19921;-72
2022/06/03 10:04:05;;;;;;;;;;;;;;;26.26;40.73;101481.56;5008307;28;19924;-70
2022/06/03 10:06:51;;;;;;;;;;;;;;;26.30;42.11;101487.75;5005979;28;19928;-70
2022/06/03 10:15:37;;;;;;;;;;;;;;;26.64;40.14;101473.22;4998765;28;19948;-72
2022/06/03 10:17:35;;;;;;;;;;;;;;;26.78;37.06;101468.03;5005838;28;19951;-71
2022/06/03 10:20:00;;;;;;;;;;;;;;;26.75;37.56;101470.94;5004832;28;20346;-71
2022/06/03 10:22:26;;;;;;;;;;;;;;;26.86;38.83;101465.03;5006910;28;19921;-71
2022/06/03 10:24:53;;;;;;;;;;;;;;;26.92;38.13;101460.47;5004354;28;19917;-71
2022/06/03 10:27:21;;;;;;;;;;;;;;;26.98;37.28;101462.25;5007040;28;20369;-71
2022/06/03 10:29:48;;;;;;;;;;;;;;;27.17;36.52;101460.38;5009048;28;19913;-71
2022/06/03 10:32:16;;;;;;;;;;;;;;;27.13;36.82;101460.53;5006716;28;19968;-72
2022/06/03 10:34:42;;;;;;;;;;;;;;;27.18;37.04;101459.94;5007881;28;20324;-72
2022/06/03 10:37:09;;;;;;;;;;;;;;;27.50;37.29;101456.84;5009493;28;19959;-71
2022/06/03 10:39:34;;;;;;;;;;;;;;;27.52;37.55;101456.38;5006303;28;19924;-72
2022/06/03 10:42:00;;;;;;;;;;;;;;;27.76;39.50;101446.34;4996462;28;19913;-72
2022/06/03 10:44:27;;;;;;;;;;;;;;;27.92;39.70;101451.69;5008749;28;19921;-71
2022/06/03 10:47:02;;;;;;;;;;;;;;;27.96;37.45;101449.59;5009617;28;19921;-72
2022/06/03 10:49:29;;;;;;;;;;;;;;;27.85;38.24;101451.97;5009514;28;19922;-71
2022/06/03 11:02:56;;;;;;;;;;;;;;;28.30;37.49;101440.34;5002078;28;19918;-71
2022/06/03 11:05:21;;;;;;;;;;;;;;;28.40;37.83;101434.34;5005151;28;19933;-71
2022/06/03 11:07:58;;;;;;;;;;;;;;;28.67;37.05;101430.88;5007074;28;20039;-71
2022/06/03 11:10:29;;;;;;;;;;;;;;;28.69;37.65;101422.84;4999142;28;19940;-71
2022/06/03 11:12:58;;;;;;;;;;;;;;;28.92;37.17;101432.59;5011699;28;19917;-71
2022/06/03 11:15:32;;;;;;;;;;;;;;;28.92;37.09;101429.84;4993537;28;20381;-72
2022/06/03 11:17:59;;;;;;;;;;;;;;;29.04;37.32;101428.88;5005884;28;19913;-71
2022/06/03 11:20:34;;;;;;;;;;;;;;;29.11;36.09;101423.03;4991615;28;19917;-72
2022/06/03 11:23:01;;;;;;;;;;;;;;;29.26;35.90;101421.97;5004070;28;20330;-71
2022/06/03 11:25:29;;;;;;;;;;;;;;;29.13;34.64;101415.06;4984231;28;19925;-71
2022/06/03 11:28:03;;;;;;;;;;;;;;;29.02;33.53;101417.47;5008856;28;20417;-72
2022/06/03 11:30:39;;;;;;;;;;;;;;;28.98;35.74;101422.41;5003929;28;19983;-72
2022/06/03 11:33:11;;;;;;;;;;;;;;;28.60;34.27;101411.00;4987039;28;19917;-72
2022/06/03 11:35:41;;;;;;;;;;;;;;;28.63;34.89;101407.31;4987347;28;19913;-71
2022/06/03 11:38:08;;;;;;;;;;;;;;;28.76;34.53;101394.06;5005198;28;20394;-72
2022/06/03 11:40:37;;;;;;;;;;;;;;;29.05;34.73;101406.25;5009490;28;19988;-71
2022/06/03 11:43:12;;;;;;;;;;;;;;;29.05;35.13;101402.69;5010327;28;19913;-71
2022/06/03 11:45:40;;;;;;;;;;;;;;;29.19;35.42;101400.06;5004872;28;19917;-71
2022/06/03 11:48:25;;;;;;;;;;;;;;;29.30;34.41;101400.38;4991085;28;20020;-72
2022/06/03 11:50:51;;;;;;;;;;;;;;;29.44;33.33;101400.97;5005984;28;19940;-72
2022/06/03 11:53:19;;;;;;;;;;;;;;;29.26;34.25;101391.44;5009640;28;20625;-72
2022/06/03 11:55:44;;;;;;;;;;;;;;;29.28;34.84;101393.75;5002861;28;19935;-72
2022/06/03 11:58:17;;;;;;;;;;;;;;;29.39;34.39;101388.47;5005784;28;19921;-72
2022/06/03 12:00:46;;;;;;;;;;;;;;;29.16;33.63;101384.34;4992061;28;20119;-72
2022/06/03 12:03:15;;;;;;;;;;;;;;;28.87;32.36;101377.72;5002951;28;19913;-73
2022/06/03 12:05:44;;;;;;;;;;;;;;;28.84;32.51;101375.88;5006283;28;19918;-72
2022/06/03 12:08:11;;;;;;;;;;;;;;;28.48;33.42;101369.03;4984885;28;20460;-73
2022/06/03 12:10:50;;;;;;;;;;;;;;;28.48;33.89;101369.03;5004667;28;19917;-72
2022/06/03 12:13:17;;;;;;;;;;;;;;;28.60;34.39;101364.63;5000660;28;19918;-72
2022/06/03 12:15:43;;;;;;;;;;;;;;;28.63;35.06;101362.94;4989215;28;19922;-72
2022/06/03 12:18:12;;;;;;;;;;;;;;;28.60;33.64;101364.63;5006895;28;19924;-73
2022/06/03 12:20:50;;;;;;;;;;;;;;;28.41;34.50;101352.72;5012193;28;19964;-73
2022/06/03 12:23:16;;;;;;;;;;;;;;;28.37;33.88;101356.88;5006321;28;19976;-72
2022/06/03 12:25:54;;;;;;;;;;;;;;;28.22;34.11;101342.81;4991638;28;19925;-72
2022/06/03 12:28:20;;;;;;;;;;;;;;;28.27;34.55;101347.75;4988288;28;19919;-73
2022/06/03 12:30:49;;;;;;;;;;;;;;;28.35;33.31;101353.78;5009017;28;19914;-72
2022/06/03 12:33:37;;;;;;;;;;;;;;;28.21;32.17;101343.28;4989701;28;19919;-72
2022/06/03 12:36:07;;;;;;;;;;;;;;;28.15;34.03;101348.66;5000927;28;21310;-72
2022/06/03 12:38:40;;;;;;;;;;;;;;;28.14;33.35;101335.28;5005352;28;19926;-73
2022/06/03 12:41:05;;;;;;;;;;;;;;;28.13;35.27;101337.25;5007923;28;19913;-73
2022/06/03 12:43:32;;;;;;;;;;;;;;;28.09;34.37;101331.09;4992156;28;19917;-73
2022/06/03 12:46:01;;;;;;;;;;;;;;;28.08;35.73;101326.00;5005041;28;19927;-73
2022/06/03 12:48:35;;;;;;;;;;;;;;;28.02;35.22;101325.84;4990567;28;19952;-73
2022/06/03 12:51:19;;;;;;;;;;;;;;;27.86;34.91;101328.06;5006235;28;19933;-73
2022/06/03 12:53:46;;;;;;;;;;;;;;;27.71;33.97;101322.34;5007422;28;19920;-73
2022/06/03 12:56:21;;;;;;;;;;;;;;;27.74;34.98;101324.19;4997475;28;19945;-72
2022/06/03 12:58:50;;;;;;;;;;;;;;;27.84;37.06;101314.69;5000858;28;19922;-72
2022/06/03 13:01:40;;;;;;;;;;;;;;;27.81;36.91;101304.53;5004926;28;19914;-73
2022/06/03 13:04:26;;;;;;;;;;;;;;;27.87;32.98;101308.25;5007162;28;19945;-72
2022/06/03 13:07:10;;;;;;;;;;;;;;;27.88;33.96;101320.06;5005340;28;19924;-72
2022/06/03 13:09:49;;;;;;;;;;;;;;;27.71;32.92;101314.03;5006441;28;20012;-73
2022/06/03 13:12:38;;;;;;;;;;;;;;;27.61;32.36;101304.91;5006084;28;20036;-75
2022/06/03 13:15:21;;;;;;;;;;;;;;;27.60;32.33;101306.13;4999882;28;19949;-74
2022/06/03 13:18:06;;;;;;;;;;;;;;;27.47;33.34;101296.38;5005001;28;19920;-74
2022/06/03 13:20:35;;;;;;;;;;;;;;;27.33;34.02;101292.19;5007580;28;19924;-74
2022/06/03 13:23:01;;;;;;;;;;;;;;;27.24;36.10;101291.34;5011936;28;19914;-73
2022/06/03 13:25:28;;;;;;;;;;;;;;;27.31;35.42;101288.31;4989050;28;19928;-73
2022/06/03 13:28:14;;;;;;;;;;;;;;;27.27;37.20;101290.44;5005276;28;19921;-74